createdAt,value
2022-12-08T00:01:19.848Z,9.97
2022-12-08T00:03:46.606Z,8.13
2022-12-08T00:06:51.382Z,8.00
2022-12-08T00:09:25.032Z,12.00
2022-12-08T00:11:52.946Z,9.47
2022-12-08T00:14:19.781Z,10.33
2022-12-08T00:16:46.416Z,9.13
2022-12-08T00:19:13.033Z,11.23
2022-12-08T00:21:39.632Z,8.20
2022-12-08T00:24:06.380Z,11.20
2022-12-08T00:26:32.936Z,9.40
2022-12-08T00:28:59.491Z,10.13
2022-12-08T00:31:26.092Z,10.57
2022-12-08T00:33:52.645Z,9.40
2022-12-08T00:36:19.341Z,9.47
2022-12-08T00:38:47.950Z,12.07
2022-12-08T00:41:17.512Z,10.67
2022-12-08T00:43:44.521Z,15.23
2022-12-08T00:46:12.037Z,15.03
2022-12-08T00:48:38.870Z,8.63
2022-12-08T00:51:05.555Z,10.07
2022-12-08T00:53:32.301Z,10.63
2022-12-08T00:55:58.881Z,7.53
2022-12-08T00:58:25.470Z,8.17
2022-12-08T01:00:52.102Z,7.50
2022-12-08T01:03:18.772Z,8.07
2022-12-08T01:05:45.403Z,8.73
2022-12-08T01:08:12.094Z,7.70
2022-12-08T01:10:39.500Z,8.03
2022-12-08T01:13:06.326Z,8.03
2022-12-08T01:15:32.955Z,7.70
2022-12-08T01:17:59.543Z,9.10
2022-12-08T01:20:26.233Z,9.77
2022-12-08T01:22:52.785Z,8.20
2022-12-08T01:25:19.314Z,7.73
2022-12-08T01:27:45.865Z,9.27
2022-12-08T01:30:13.259Z,8.47
2022-12-08T01:32:39.814Z,9.07
2022-12-08T01:35:06.528Z,9.47
2022-12-08T01:37:33.083Z,10.73
2022-12-08T01:39:59.679Z,8.20
2022-12-08T01:42:26.379Z,12.80
2022-12-08T01:44:57.420Z,11.47
2022-12-08T01:47:26.418Z,9.57
2022-12-08T01:49:53.261Z,9.50
2022-12-08T01:52:29.381Z,8.93
2022-12-08T01:55:01.462Z,10.17
2022-12-08T01:57:39.922Z,9.17
2022-12-08T02:00:09.722Z,9.63
2022-12-08T02:02:58.020Z,10.13
2022-12-08T02:05:28.147Z,10.33
2022-12-08T02:07:56.950Z,10.93
2022-12-08T02:10:27.102Z,8.57
2022-12-08T02:12:56.087Z,9.30
2022-12-08T02:15:33.959Z,9.27
2022-12-08T02:18:26.667Z,10.20
2022-12-08T02:21:08.721Z,8.27
2022-12-08T02:24:07.866Z,8.77
2022-12-08T02:27:03.521Z,9.47
2022-12-08T02:29:48.344Z,8.70
2022-12-08T02:32:45.083Z,12.43
2022-12-08T02:35:21.264Z,10.13
2022-12-08T02:37:56.640Z,10.50
2022-12-08T02:40:26.186Z,10.30
2022-12-08T02:42:58.377Z,10.00
2022-12-08T02:45:38.289Z,8.93
2022-12-08T02:48:05.624Z,9.93
2022-12-08T02:50:32.250Z,9.57
2022-12-08T02:52:58.828Z,11.43
2022-12-08T02:55:34.906Z,8.10
2022-12-08T02:58:35.218Z,9.53
2022-12-08T03:01:19.865Z,10.77
2022-12-08T03:04:06.498Z,7.77
2022-12-08T03:06:59.497Z,9.30
2022-12-08T03:09:38.461Z,7.17
2022-12-08T03:12:27.677Z,8.30
2022-12-08T03:14:58.207Z,7.03
2022-12-08T03:17:28.711Z,6.30
2022-12-08T03:19:57.967Z,6.83
2022-12-08T03:22:27.486Z,8.23
2022-12-08T03:24:55.355Z,5.77
2022-12-08T03:27:26.788Z,6.50
2022-12-08T03:29:56.304Z,6.17
2022-12-08T03:32:39.824Z,7.90
2022-12-08T03:35:12.283Z,7.37
2022-12-08T03:37:40.817Z,7.27
2022-12-08T03:40:10.400Z,7.57
2022-12-08T03:42:36.968Z,6.57
2022-12-08T03:45:04.618Z,5.43
2022-12-08T03:47:31.228Z,5.67
2022-12-08T03:49:57.776Z,5.30
2022-12-08T03:52:25.336Z,5.10
2022-12-08T03:54:51.903Z,5.33
2022-12-08T03:57:18.459Z,4.60
2022-12-08T03:59:44.993Z,5.73
2022-12-08T04:02:11.590Z,6.13
2022-12-08T04:04:38.164Z,5.03
2022-12-08T04:07:04.689Z,6.17
2022-12-08T04:09:31.481Z,6.60
2022-12-08T04:11:58.040Z,7.43
2022-12-08T04:14:24.607Z,5.70
2022-12-08T04:16:51.197Z,6.60
2022-12-08T04:19:17.778Z,7.93
2022-12-08T04:21:44.328Z,6.80
2022-12-08T04:24:10.913Z,8.00
2022-12-08T04:26:37.474Z,8.53
2022-12-08T04:29:04.017Z,8.63
2022-12-08T04:31:30.582Z,9.10
2022-12-08T04:33:57.185Z,9.50
2022-12-08T04:36:23.786Z,9.70
2022-12-08T04:38:50.451Z,9.33
2022-12-08T04:41:17.042Z,8.90
2022-12-08T04:43:44.349Z,7.77
2022-12-08T04:46:11.401Z,8.27
2022-12-08T04:48:39.257Z,8.93
2022-12-08T04:51:06.288Z,10.03
2022-12-08T04:53:33.218Z,8.27
2022-12-08T04:55:59.846Z,8.33
2022-12-08T04:58:26.388Z,10.97
2022-12-08T05:00:52.997Z,9.27
2022-12-08T05:03:26.743Z,10.20
2022-12-08T05:05:55.084Z,12.30
2022-12-08T05:08:21.669Z,9.80
2022-12-08T05:10:48.289Z,9.60
2022-12-08T05:13:14.828Z,11.33
2022-12-08T05:15:41.977Z,10.70
2022-12-08T05:18:08.759Z,9.90
2022-12-08T05:20:36.003Z,11.63
2022-12-08T05:23:02.772Z,10.03
2022-12-08T05:25:29.376Z,11.43
2022-12-08T05:28:17.477Z,13.47
2022-12-08T05:30:42.443Z,10.40
2022-12-08T05:33:09.051Z,10.37
2022-12-08T05:35:35.608Z,11.67
2022-12-08T05:38:02.145Z,13.43
2022-12-08T05:40:28.704Z,13.23
2022-12-08T05:42:55.245Z,13.47
2022-12-08T05:45:21.791Z,12.23
2022-12-08T05:47:48.368Z,13.10
2022-12-08T05:50:14.941Z,10.23
2022-12-08T05:52:41.481Z,10.67
2022-12-08T05:55:08.342Z,12.73
2022-12-08T05:57:34.894Z,16.30
2022-12-08T06:00:01.677Z,11.27
2022-12-08T06:02:28.507Z,13.17
2022-12-08T06:04:55.134Z,12.70
2022-12-08T06:07:21.673Z,16.40
2022-12-08T06:09:48.203Z,14.37
2022-12-08T06:12:16.391Z,18.07
2022-12-08T06:14:43.164Z,14.90
2022-12-08T06:17:09.762Z,15.87
2022-12-08T06:19:36.444Z,14.63
2022-12-08T06:22:03.019Z,16.47
2022-12-08T06:24:29.551Z,17.87
2022-12-08T06:26:56.078Z,16.47
2022-12-08T06:29:22.640Z,16.20
2022-12-08T06:31:49.259Z,17.20
2022-12-08T06:34:15.904Z,18.00
2022-12-08T06:36:42.451Z,17.87
2022-12-08T06:39:10.467Z,18.33
2022-12-08T06:41:57.243Z,15.13
2022-12-08T06:44:23.950Z,16.00
2022-12-08T06:46:50.617Z,16.13
2022-12-08T06:49:17.519Z,19.70
2022-12-08T06:51:44.075Z,13.63
2022-12-08T06:54:10.683Z,14.63
2022-12-08T06:56:37.225Z,19.23
2022-12-08T06:59:03.973Z,16.53
2022-12-08T07:01:30.526Z,13.30
2022-12-08T07:03:57.118Z,14.97
2022-12-08T07:06:24.996Z,16.93
2022-12-08T07:08:51.639Z,14.60
2022-12-08T07:11:21.860Z,15.37
2022-12-08T07:13:49.880Z,18.23
2022-12-08T07:16:16.692Z,13.23
2022-12-08T07:18:44.113Z,14.23
2022-12-08T07:21:13.140Z,16.47
2022-12-08T07:23:39.742Z,16.47
2022-12-08T07:26:08.274Z,16.67
2022-12-08T07:28:36.485Z,15.37
2022-12-08T07:31:04.013Z,15.40
2022-12-08T07:33:31.290Z,15.07
2022-12-08T07:35:59.474Z,13.73
2022-12-08T07:38:26.929Z,14.17
2022-12-08T07:40:54.219Z,14.73
2022-12-08T07:43:22.047Z,18.23
2022-12-08T07:45:49.745Z,19.40
2022-12-08T07:48:16.861Z,13.70
2022-12-08T07:50:44.579Z,14.90
2022-12-08T07:53:11.142Z,15.90
2022-12-08T07:55:44.388Z,14.80
2022-12-08T07:58:11.761Z,16.70
2022-12-08T08:00:38.493Z,16.97
2022-12-08T08:03:05.301Z,14.50
2022-12-08T08:05:31.894Z,13.60
2022-12-08T08:07:58.502Z,16.47
2022-12-08T08:10:25.167Z,12.97
2022-12-08T08:12:51.825Z,15.37
2022-12-08T08:15:20.396Z,14.37
2022-12-08T08:17:54.349Z,15.73
2022-12-08T08:20:21.606Z,17.90
2022-12-08T08:22:49.737Z,14.27
2022-12-08T08:25:18.148Z,13.93
2022-12-08T08:27:45.671Z,15.13
2022-12-08T08:30:19.696Z,13.60
2022-12-08T08:32:46.916Z,15.73
2022-12-08T08:35:13.564Z,13.77
2022-12-08T08:37:43.151Z,15.37
2022-12-08T08:40:13.993Z,15.30
2022-12-08T08:42:40.715Z,11.63
2022-12-08T08:45:07.869Z,14.40
2022-12-08T08:47:34.519Z,13.17
2022-12-08T08:50:01.099Z,15.97
2022-12-08T08:52:27.710Z,13.07
2022-12-08T08:54:54.326Z,14.20
2022-12-08T08:57:25.567Z,12.70
2022-12-08T08:59:53.237Z,14.40
2022-12-08T09:02:20.197Z,14.17
2022-12-08T09:04:47.036Z,15.60
2022-12-08T09:07:14.089Z,14.13
2022-12-08T09:09:40.980Z,12.60
2022-12-08T09:12:08.370Z,13.27
2022-12-08T09:14:35.417Z,12.73
2022-12-08T09:17:02.035Z,14.33
2022-12-08T09:19:28.629Z,12.77
2022-12-08T09:21:55.246Z,11.37
2022-12-08T09:24:21.806Z,13.07
2022-12-08T09:26:48.485Z,14.17
2022-12-08T09:29:15.189Z,12.57
2022-12-08T09:31:41.960Z,13.10
2022-12-08T09:34:09.872Z,11.57
2022-12-08T09:36:36.395Z,12.33
2022-12-08T09:39:03.379Z,12.57
2022-12-08T09:41:48.403Z,18.00
2022-12-08T09:44:54.870Z,11.43
2022-12-08T09:47:35.271Z,16.47
2022-12-08T09:50:07.796Z,14.73
2022-12-08T09:52:41.342Z,13.80
2022-12-08T09:55:24.385Z,11.57
2022-12-08T09:58:00.308Z,13.87
2022-12-08T10:00:26.980Z,13.60
2022-12-08T10:02:55.064Z,13.87
2022-12-08T10:05:25.614Z,12.93
2022-12-08T10:08:18.546Z,17.90
2022-12-08T10:11:13.624Z,15.77
2022-12-08T10:14:16.315Z,14.27
2022-12-08T10:16:47.578Z,16.43
2022-12-08T10:19:20.022Z,11.73
2022-12-08T10:21:46.901Z,12.13
2022-12-08T10:24:24.741Z,11.80
2022-12-08T10:26:51.414Z,13.30
2022-12-08T10:29:18.922Z,12.10
2022-12-08T10:31:45.669Z,16.23
2022-12-08T10:34:23.121Z,16.20
2022-12-08T10:36:58.390Z,13.40
2022-12-08T10:39:34.179Z,11.53
2022-12-08T10:42:21.946Z,16.53
2022-12-08T10:45:04.069Z,14.27
2022-12-08T10:47:36.810Z,13.67
2022-12-08T10:50:19.174Z,11.50
2022-12-08T10:52:53.474Z,13.97
2022-12-08T10:55:21.276Z,15.97
2022-12-08T10:57:50.950Z,11.43
2022-12-08T11:00:27.957Z,13.50
2022-12-08T11:03:03.517Z,13.60
2022-12-08T11:05:36.087Z,12.27
2022-12-08T11:08:04.946Z,11.33
2022-12-08T11:10:45.029Z,12.57
2022-12-08T11:13:26.731Z,13.77
2022-12-08T11:15:55.236Z,10.37
2022-12-08T11:18:26.891Z,13.10
2022-12-08T11:20:58.768Z,13.87
2022-12-08T11:23:28.024Z,10.77
2022-12-08T11:25:58.686Z,11.43
2022-12-08T11:28:25.884Z,12.90
2022-12-08T11:31:00.397Z,9.73
2022-12-08T11:33:28.466Z,10.57
2022-12-08T11:36:07.511Z,12.10
2022-12-08T11:38:39.330Z,10.13
2022-12-08T11:41:31.730Z,10.93
2022-12-08T11:44:29.482Z,9.97
2022-12-08T11:47:20.633Z,9.83
2022-12-08T11:52:41.995Z,10.77
2022-12-08T11:55:42.728Z,11.87
2022-12-08T11:58:18.318Z,12.83
2022-12-08T12:00:45.139Z,13.07
2022-12-08T12:03:31.186Z,13.47
2022-12-08T12:06:54.347Z,12.10
2022-12-08T12:09:55.404Z,12.43
2022-12-08T12:12:46.978Z,13.57
2022-12-08T12:16:08.408Z,11.00
2022-12-08T12:18:53.900Z,11.90
2022-12-08T12:21:27.282Z,11.37
2022-12-08T12:24:25.159Z,14.97
2022-12-08T12:27:14.997Z,13.83
2022-12-08T12:30:21.006Z,13.60
2022-12-08T12:32:56.582Z,12.50
2022-12-08T12:35:35.100Z,14.50
2022-12-08T12:38:28.835Z,13.40
2022-12-08T12:41:03.129Z,13.20
2022-12-08T12:43:33.604Z,13.30
2022-12-08T12:46:25.052Z,11.17
2022-12-08T12:48:52.735Z,11.50
2022-12-08T12:51:37.911Z,14.27
2022-12-08T12:54:24.833Z,12.80
2022-12-08T12:57:15.199Z,10.67
2022-12-08T12:59:55.836Z,14.00
2022-12-08T13:02:46.045Z,13.30
2022-12-08T13:05:26.341Z,11.13
2022-12-08T13:07:55.473Z,11.53
2022-12-08T13:10:26.321Z,10.63
2022-12-08T13:13:12.471Z,10.47
2022-12-08T13:15:41.485Z,10.73
2022-12-08T13:18:19.309Z,11.40
2022-12-08T13:20:48.669Z,8.83
2022-12-08T13:23:29.599Z,9.93
2022-12-08T13:26:28.225Z,10.47
2022-12-08T13:29:07.054Z,7.83
2022-12-08T13:32:13.557Z,7.20
2022-12-08T13:34:55.938Z,6.83
2022-12-08T13:37:48.132Z,8.83
2022-12-08T13:40:24.671Z,8.37
2022-12-08T13:43:01.802Z,8.00
2022-12-08T13:46:18.351Z,8.57
2022-12-08T13:57:32.898Z,11.00
2022-12-08T14:00:33.634Z,9.77
2022-12-08T14:03:01.804Z,10.53
2022-12-08T14:06:10.663Z,8.17
2022-12-08T14:08:59.042Z,9.93
2022-12-08T14:11:39.851Z,8.10
2022-12-08T14:14:14.532Z,11.00
2022-12-08T14:16:53.606Z,8.37
2022-12-08T14:19:32.612Z,11.73
2022-12-08T14:22:10.911Z,15.27
2022-12-08T14:24:37.704Z,9.70
2022-12-08T14:27:07.451Z,9.77
2022-12-08T14:30:08.608Z,13.47
2022-12-08T14:32:38.766Z,13.43
2022-12-08T14:35:08.560Z,11.00
2022-12-08T14:37:38.884Z,15.17
2022-12-08T14:40:13.163Z,12.00
2022-12-08T14:42:49.918Z,13.60
2022-12-08T14:45:18.282Z,12.10
2022-12-08T14:47:45.765Z,12.87
2022-12-08T14:51:01.742Z,15.03
2022-12-08T14:53:37.777Z,11.77
2022-12-08T14:56:14.902Z,14.90
2022-12-08T14:58:41.835Z,14.03
2022-12-08T15:01:12.153Z,15.17
2022-12-08T15:03:39.900Z,15.50
2022-12-08T15:06:08.225Z,12.43
2022-12-08T15:08:52.625Z,15.67
2022-12-08T15:11:30.218Z,10.77
2022-12-08T15:13:56.992Z,11.93
2022-12-08T15:16:43.603Z,9.73
2022-12-08T15:19:24.313Z,9.17
2022-12-08T15:21:51.198Z,11.27
2022-12-08T15:24:19.617Z,10.70
2022-12-08T15:26:48.794Z,9.40
2022-12-08T15:29:24.753Z,12.40
2022-12-08T15:31:53.786Z,9.90
2022-12-08T15:34:21.212Z,10.20
2022-12-08T15:36:50.131Z,11.37
2022-12-08T15:39:36.136Z,10.20
2022-12-08T15:42:06.107Z,20.00
2022-12-08T15:44:32.930Z,14.13
2022-12-08T15:46:59.999Z,14.33
2022-12-08T15:49:26.780Z,13.03
2022-12-08T15:52:03.501Z,13.10
2022-12-08T15:54:37.086Z,12.03
2022-12-08T15:57:19.073Z,10.83
2022-12-08T15:59:46.010Z,11.13
2022-12-08T16:02:19.313Z,9.00
2022-12-08T16:07:37.947Z,10.60
2022-12-08T16:10:06.538Z,9.27
2022-12-08T16:15:57.109Z,11.10
2022-12-08T16:18:29.137Z,12.23
2022-12-08T16:21:09.601Z,10.53
2022-12-08T16:23:44.596Z,12.37
2022-12-08T16:29:19.467Z,12.40
2022-12-08T16:31:46.233Z,14.50
2022-12-08T16:34:12.931Z,12.33
2022-12-08T16:36:39.521Z,15.50
2022-12-08T16:39:06.340Z,12.20
2022-12-08T16:41:51.788Z,11.63
2022-12-08T16:44:18.321Z,11.20
2022-12-08T16:46:44.925Z,11.37
2022-12-08T16:49:11.510Z,10.57
2022-12-08T16:51:38.058Z,10.87
2022-12-08T16:54:04.882Z,8.93
2022-12-08T16:56:33.524Z,11.03
2022-12-08T16:59:01.739Z,10.97
2022-12-08T17:01:28.422Z,9.20
2022-12-08T17:06:41.649Z,9.47
2022-12-08T17:09:08.202Z,10.87
2022-12-08T17:11:40.799Z,9.27
2022-12-08T17:14:09.521Z,11.63
2022-12-08T17:16:36.177Z,9.47
2022-12-08T17:19:02.793Z,9.23
2022-12-08T17:21:29.683Z,10.93
2022-12-08T17:23:56.291Z,10.93
2022-12-08T17:26:22.836Z,9.43
2022-12-08T17:29:00.398Z,10.40
2022-12-08T17:31:29.891Z,10.17
2022-12-08T17:34:09.449Z,10.60
2022-12-08T17:36:36.081Z,9.93
2022-12-08T17:39:03.398Z,10.23
2022-12-08T17:41:30.265Z,9.40
2022-12-08T17:43:57.251Z,9.83
2022-12-08T17:46:24.434Z,9.97
2022-12-08T17:48:51.885Z,10.60
2022-12-08T17:51:18.733Z,9.53
2022-12-08T17:53:45.847Z,11.33
2022-12-08T17:56:20.244Z,9.60
2022-12-08T17:58:54.020Z,12.03
2022-12-08T18:01:22.000Z,12.93
2022-12-08T18:03:48.612Z,13.67
2022-12-08T18:06:17.354Z,11.77
2022-12-08T18:08:43.951Z,11.40
2022-12-08T18:11:14.158Z,12.00
2022-12-08T18:13:40.945Z,12.03
2022-12-08T18:16:07.684Z,12.90
2022-12-08T18:18:34.247Z,11.67
2022-12-08T18:21:00.790Z,13.93
2022-12-08T18:23:27.535Z,11.77
2022-12-08T18:25:54.200Z,11.57
2022-12-08T18:28:20.791Z,12.43
2022-12-08T18:30:47.450Z,13.10
2022-12-08T18:33:14.062Z,11.37
2022-12-08T18:35:40.626Z,11.70
2022-12-08T18:38:07.471Z,12.13
2022-12-08T18:40:34.044Z,12.20
2022-12-08T18:43:00.963Z,13.57
2022-12-08T18:45:27.523Z,11.57
2022-12-08T18:47:54.642Z,11.80
2022-12-08T18:50:21.346Z,15.13
2022-12-08T18:52:48.049Z,13.60
2022-12-08T18:55:15.403Z,14.67
2022-12-08T18:57:43.190Z,14.27
2022-12-08T19:00:13.984Z,13.83
2022-12-08T19:02:41.123Z,13.37
2022-12-08T19:05:09.747Z,15.13
2022-12-08T19:07:36.499Z,12.67
2022-12-08T19:10:04.092Z,13.10
2022-12-08T19:12:31.004Z,15.17
2022-12-08T19:14:58.039Z,13.80
2022-12-08T19:17:25.854Z,12.67
2022-12-08T19:19:52.477Z,13.87
2022-12-08T19:22:19.024Z,12.83
2022-12-08T19:24:45.634Z,11.77
2022-12-08T19:27:12.273Z,14.20
2022-12-08T19:29:38.909Z,11.17
2022-12-08T19:32:05.669Z,12.20
2022-12-08T19:34:32.240Z,12.00
2022-12-08T19:36:58.804Z,12.43
2022-12-08T19:39:43.904Z,11.43
2022-12-08T19:42:37.609Z,10.70
2022-12-08T19:45:14.157Z,11.10
2022-12-08T19:47:41.320Z,11.20
2022-12-08T19:50:28.570Z,10.17
2022-12-08T19:52:56.122Z,10.07
2022-12-08T19:55:24.083Z,9.70
2022-12-08T19:57:51.449Z,10.50
2022-12-08T20:00:19.217Z,10.73
2022-12-08T20:02:46.852Z,11.47
2022-12-08T20:05:13.623Z,10.63
2022-12-08T20:07:40.608Z,10.90
2022-12-08T20:10:16.520Z,9.93
2022-12-08T20:12:43.286Z,11.37
2022-12-08T20:15:10.432Z,11.00
2022-12-08T20:17:38.531Z,8.83
2022-12-08T20:20:07.640Z,10.77
2022-12-08T20:22:34.906Z,10.50
2022-12-08T20:25:01.765Z,11.93
2022-12-08T20:27:29.088Z,10.57
2022-12-08T20:29:55.797Z,12.13
2022-12-08T20:32:22.370Z,10.13
2022-12-08T20:34:49.028Z,10.37
2022-12-08T20:37:15.708Z,11.67
2022-12-08T20:39:42.257Z,9.47
2022-12-08T20:42:13.566Z,10.47
2022-12-08T20:44:44.119Z,9.97
2022-12-08T20:47:12.038Z,9.13
2022-12-08T20:49:38.941Z,9.93
2022-12-08T20:52:05.856Z,10.97
2022-12-08T20:54:32.542Z,9.77
2022-12-08T20:56:59.370Z,11.60
2022-12-08T20:59:26.728Z,11.87
2022-12-08T21:01:54.002Z,11.20
2022-12-08T21:04:21.460Z,12.00
2022-12-08T21:06:48.933Z,10.90
2022-12-08T21:09:15.613Z,11.13
2022-12-08T21:11:42.465Z,14.07
2022-12-08T21:14:09.132Z,16.13
2022-12-08T21:16:36.059Z,10.17
2022-12-08T21:19:02.765Z,11.63
2022-12-08T21:21:29.459Z,11.10
2022-12-08T21:23:56.167Z,11.80
2022-12-08T21:26:25.828Z,12.57
2022-12-08T21:28:54.705Z,12.40
2022-12-08T21:31:22.294Z,12.07
2022-12-08T21:33:49.207Z,14.17
2022-12-08T21:36:18.390Z,11.13
2022-12-08T21:38:45.643Z,12.10
2022-12-08T21:41:15.580Z,11.27
2022-12-08T21:43:43.232Z,12.73
2022-12-08T21:46:17.190Z,14.13
2022-12-08T21:48:43.995Z,11.77
2022-12-08T21:51:10.947Z,11.70
2022-12-08T21:53:37.707Z,12.27
2022-12-08T21:56:09.187Z,12.70
2022-12-08T21:58:36.022Z,10.33
2022-12-08T22:01:10.938Z,12.27
2022-12-08T22:03:39.847Z,11.23
2022-12-08T22:06:08.501Z,12.40
2022-12-08T22:08:35.866Z,11.43
2022-12-08T22:11:03.160Z,12.27
2022-12-08T22:13:30.025Z,13.13
2022-12-08T22:15:58.377Z,11.97
2022-12-08T22:18:25.457Z,11.37
2022-12-08T22:20:52.656Z,10.87
2022-12-08T22:23:19.448Z,13.33
2022-12-08T22:25:54.998Z,11.67
2022-12-08T22:28:21.854Z,12.50
2022-12-08T22:30:48.619Z,12.67
2022-12-08T22:33:15.398Z,11.07
2022-12-08T22:35:42.062Z,11.47
2022-12-08T22:38:08.927Z,11.63
2022-12-08T22:40:35.618Z,11.60
2022-12-08T22:43:02.269Z,9.67
2022-12-08T22:45:29.211Z,14.70
2022-12-08T22:47:55.957Z,12.40
2022-12-08T22:50:22.628Z,11.00
2022-12-08T22:52:49.428Z,9.93
2022-12-08T22:55:16.161Z,11.23
2022-12-08T22:57:42.737Z,10.97
2022-12-08T23:00:11.962Z,12.33
2022-12-08T23:02:38.778Z,12.60
2022-12-08T23:05:05.800Z,11.40
2022-12-08T23:07:32.505Z,11.97
2022-12-08T23:09:59.040Z,12.40
2022-12-08T23:12:25.855Z,10.80
2022-12-08T23:14:52.642Z,11.13
2022-12-08T23:17:19.492Z,12.90
2022-12-08T23:19:46.313Z,11.57
2022-12-08T23:22:12.892Z,11.57
2022-12-08T23:24:40.004Z,10.97
2022-12-08T23:27:07.326Z,11.77
2022-12-08T23:29:33.929Z,11.53
2022-12-08T23:32:00.596Z,10.23
2022-12-08T23:34:27.324Z,10.20
2022-12-08T23:36:53.919Z,11.73
2022-12-08T23:39:24.120Z,11.30
2022-12-08T23:41:51.420Z,11.13
2022-12-08T23:44:18.202Z,10.57
2022-12-08T23:46:45.081Z,11.67
2022-12-08T23:49:12.413Z,11.07
2022-12-08T23:51:39.128Z,11.07
2022-12-08T23:54:06.590Z,11.50
2022-12-08T23:56:33.328Z,13.77
2022-12-08T23:59:02.727Z,12.57
